Time;durP1;ratioP1;P1;durP2;ratioP2;P2;SDS_P1;SDS_P2;PMS_P1;PMS_P2;Temp;Humidity;BMP_temperature;BMP_pressure;BME280_temperature;BME280_humidity;BME280_pressure;Samples;Min_cycle;Max_cycle;Signal;HPM_P1;HPM_P2
2024/01/20 00:02:01;;;;;;;10.00;9.38;;;;;;;-145.48;100.00;64539.38;6284255;28;20055;-90
2024/01/20 00:05:03;;;;;;;10.85;10.15;;;;;;;-145.48;100.00;64539.38;6281119;28;20452;-90
2024/01/20 00:08:05;;;;;;;11.50;10.50;;;;;;;-145.48;100.00;64539.38;6282832;28;20040;-89
2024/01/20 00:11:07;;;;;;;12.32;11.52;;;;;;;-145.48;100.00;64539.38;6282238;28;20048;-91
2024/01/20 00:14:10;;;;;;;11.55;10.38;;;;;;;-145.48;100.00;64539.38;6279759;28;20041;-90
2024/01/20 00:17:12;;;;;;;12.63;11.48;;;;;;;-145.48;100.00;64539.38;6273120;28;20047;-90
2024/01/20 00:20:27;;;;;;;19.17;13.10;;;;;;;-145.48;100.00;64539.38;6273483;28;20534;-90
2024/01/20 00:23:29;;;;;;;11.35;10.20;;;;;;;-145.48;100.00;64539.38;6283075;28;20333;-90
2024/01/20 00:26:31;;;;;;;13.77;11.90;;;;;;;-145.48;100.00;64539.38;6278311;28;20048;-90
2024/01/20 00:29:33;;;;;;;10.75;9.85;;;;;;;-145.48;100.00;64539.38;6282902;28;20514;-90
2024/01/20 00:32:36;;;;;;;10.95;10.02;;;;;;;-145.48;100.00;64539.38;6283091;28;20194;-90
2024/01/20 00:35:42;;;;;;;12.30;11.07;;;;;;;-145.48;100.00;64539.38;6280994;28;20070;-89
2024/01/20 00:38:44;;;;;;;12.05;10.82;;;;;;;-145.48;100.00;64539.38;6275860;28;20129;-90
2024/01/20 00:41:46;;;;;;;13.63;12.20;;;;;;;-145.48;100.00;64539.38;6284640;28;20036;-90
2024/01/20 00:44:48;;;;;;;12.23;10.52;;;;;;;-145.48;100.00;64539.38;6286891;28;20044;-90
2024/01/20 00:47:50;;;;;;;14.15;11.90;;;;;;;-145.48;100.00;64539.38;6278643;28;20699;-90
2024/01/20 00:50:52;;;;;;;11.15;10.27;;;;;;;-145.48;100.00;64539.38;6276595;28;20052;-90
2024/01/20 00:53:54;;;;;;;14.18;11.77;;;;;;;-145.48;100.00;64539.38;6280243;28;20240;-90
2024/01/20 00:56:56;;;;;;;13.48;11.27;;;;;;;-145.48;100.00;64539.38;6288316;28;20227;-90
2024/01/20 00:59:58;;;;;;;10.77;10.13;;;;;;;-145.48;100.00;64539.38;6281627;28;20044;-90
2024/01/20 01:03:00;;;;;;;12.13;11.10;;;;;;;-145.48;100.00;64539.38;6280024;28;20403;-90
2024/01/20 01:06:03;;;;;;;11.07;10.30;;;;;;;-145.48;100.00;64539.38;6278183;28;20533;-90
2024/01/20 01:09:05;;;;;;;10.75;10.02;;;;;;;-145.48;100.00;64539.38;6283207;28;20536;-90
2024/01/20 01:12:06;;;;;;;8.27;7.90;;;;;;;-145.48;100.00;64539.38;6290069;28;20059;-90
2024/01/20 01:15:08;;;;;;;13.20;12.05;;;;;;;-145.48;100.00;64539.38;6285899;28;20036;-90
2024/01/20 01:18:10;;;;;;;10.60;9.82;;;;;;;-145.48;100.00;64539.38;6268040;28;20148;-90
2024/01/20 01:21:12;;;;;;;11.68;10.77;;;;;;;-145.48;100.00;64539.38;6283509;28;20053;-90
2024/01/20 01:24:15;;;;;;;10.35;9.68;;;;;;;-145.48;100.00;64539.38;6279760;28;20040;-90
2024/01/20 01:27:17;;;;;;;13.60;12.27;;;;;;;-145.48;100.00;64539.38;6275757;28;20036;-90
2024/01/20 01:30:19;;;;;;;11.95;11.05;;;;;;;-145.48;100.00;64539.38;6288857;28;20044;-90
2024/01/20 01:33:22;;;;;;;12.55;11.55;;;;;;;-145.48;100.00;64539.38;6280875;28;21074;-90
2024/01/20 01:36:23;;;;;;;17.65;11.30;;;;;;;-145.48;100.00;64539.38;6292607;28;20109;-90
2024/01/20 01:39:25;;;;;;;11.38;10.77;;;;;;;-145.48;100.00;64539.38;6282985;28;20118;-90
2024/01/20 01:42:27;;;;;;;9.75;9.18;;;;;;;-145.48;100.00;64539.38;6286019;28;20037;-90
2024/01/20 01:45:29;;;;;;;11.80;10.50;;;;;;;-145.48;100.00;64539.38;6283648;28;20040;-90
2024/01/20 01:48:33;;;;;;;12.63;11.68;;;;;;;-145.48;100.00;64539.38;6287970;28;20045;-90
2024/01/20 01:51:35;;;;;;;12.85;11.75;;;;;;;-145.48;100.00;64539.38;6288227;28;20047;-90
2024/01/20 01:54:38;;;;;;;10.75;10.18;;;;;;;-145.48;100.00;64539.38;6284476;28;20049;-89
2024/01/20 01:57:42;;;;;;;9.88;9.23;;;;;;;-145.48;100.00;64539.38;6283145;28;20119;-90
2024/01/20 02:00:44;;;;;;;11.48;10.70;;;;;;;-145.48;100.00;64539.38;6278419;28;20131;-90
2024/01/20 02:03:46;;;;;;;12.18;10.85;;;;;;;-145.48;100.00;64539.38;6282906;28;20048;-89
2024/01/20 02:06:48;;;;;;;12.32;11.18;;;;;;;-145.48;100.00;64539.38;6282873;28;20047;-90
2024/01/20 02:09:50;;;;;;;11.20;10.60;;;;;;;-145.48;100.00;64539.38;6284421;28;20509;-89
2024/01/20 02:12:53;;;;;;;12.73;11.70;;;;;;;-145.48;100.00;64539.38;6277238;28;20533;-89
2024/01/20 02:15:55;;;;;;;10.00;9.38;;;;;;;-145.48;100.00;64539.38;6296030;28;20052;-90
2024/01/20 02:19:06;;;;;;;11.50;10.48;;;;;;;-145.48;100.00;64539.38;6286800;28;20457;-90
2024/01/20 02:22:16;;;;;;;11.85;10.95;;;;;;;-145.48;100.00;64539.38;6288895;28;20043;-90
2024/01/20 02:25:18;;;;;;;10.02;9.27;;;;;;;-145.48;100.00;64539.38;6286614;28;20485;-90
2024/01/20 02:28:19;;;;;;;11.30;10.35;;;;;;;-145.48;100.00;64539.38;6280195;28;20394;-90
2024/01/20 02:31:21;;;;;;;14.68;12.20;;;;;;;-145.48;100.00;64539.38;6279053;28;20043;-90
2024/01/20 02:34:23;;;;;;;16.33;10.82;;;;;;;-145.48;100.00;64539.38;6284382;28;20068;-90
2024/01/20 02:37:25;;;;;;;10.98;9.95;;;;;;;-145.48;100.00;64539.38;6286268;28;20044;-90
2024/01/20 02:40:27;;;;;;;10.32;9.52;;;;;;;-145.48;100.00;64539.38;6278897;28;20402;-90
2024/01/20 02:43:29;;;;;;;11.70;10.63;;;;;;;-145.48;100.00;64539.38;6281848;28;20036;-90
2024/01/20 02:46:32;;;;;;;9.63;8.98;;;;;;;-145.48;100.00;64539.38;6295906;28;20131;-89
2024/01/20 02:49:34;;;;;;;10.57;9.85;;;;;;;-145.48;100.00;64539.38;6272046;28;20052;-89
2024/01/20 02:52:37;;;;;;;10.80;9.90;;;;;;;-145.48;100.00;64539.38;6286197;28;20559;-90
2024/01/20 02:55:39;;;;;;;11.38;10.35;;;;;;;-145.48;100.00;64539.38;6280534;28;20111;-90
2024/01/20 02:58:40;;;;;;;11.15;10.15;;;;;;;-145.48;100.00;64539.38;6277519;28;20041;-90
2024/01/20 03:01:42;;;;;;;11.13;10.18;;;;;;;-145.48;100.00;64539.38;6269488;28;20097;-90
2024/01/20 03:04:44;;;;;;;11.75;10.85;;;;;;;-145.48;100.00;64539.38;6283169;28;20111;-90
2024/01/20 03:07:46;;;;;;;11.95;9.30;;;;;;;-145.48;100.00;64539.38;6277922;28;20029;-90
2024/01/20 03:10:48;;;;;;;12.82;11.52;;;;;;;-145.48;100.00;64539.38;6276830;28;20040;-90
2024/01/20 03:13:50;;;;;;;14.45;13.07;;;;;;;-145.48;100.00;64539.38;6280544;28;20235;-90
2024/01/20 03:16:52;;;;;;;14.48;13.40;;;;;;;-145.48;100.00;64539.38;6261167;28;20048;-90
2024/01/20 03:19:54;;;;;;;11.80;10.88;;;;;;;-145.48;100.00;64539.38;6279183;28;20040;-90
2024/01/20 03:22:56;;;;;;;10.73;9.93;;;;;;;-145.48;100.00;64539.38;6280326;28;20036;-90
2024/01/20 03:25:58;;;;;;;12.48;11.48;;;;;;;-145.48;100.00;64539.38;6274621;28;20127;-90
2024/01/20 03:28:59;;;;;;;11.50;10.60;;;;;;;-145.48;100.00;64539.38;6283367;28;20054;-90
2024/01/20 03:32:01;;;;;;;10.50;9.80;;;;;;;-145.48;100.00;64539.38;6281266;28;20043;-90
2024/01/20 03:35:04;;;;;;;16.77;11.80;;;;;;;-145.48;100.00;64539.38;6284596;28;20396;-90
2024/01/20 03:38:06;;;;;;;11.50;10.57;;;;;;;-145.48;100.00;64539.38;6281237;28;20828;-90
2024/01/20 03:41:07;;;;;;;10.95;10.02;;;;;;;-145.48;100.00;64539.38;6284188;28;20055;-90
2024/01/20 03:44:09;;;;;;;11.60;10.55;;;;;;;-145.48;100.00;64539.38;6276156;28;20044;-90
2024/01/20 03:47:11;;;;;;;16.55;11.68;;;;;;;-145.48;100.00;64539.38;6278861;28;20112;-90
2024/01/20 03:50:13;;;;;;;9.82;9.20;;;;;;;-145.48;100.00;64539.38;6278919;28;20060;-90
2024/01/20 03:53:15;;;;;;;11.32;10.35;;;;;;;-145.48;100.00;64539.38;6279556;28;20046;-90
2024/01/20 03:56:18;;;;;;;12.23;11.43;;;;;;;-145.48;100.00;64539.38;6270236;28;20499;-90
2024/01/20 03:59:19;;;;;;;12.13;11.10;;;;;;;-145.48;100.00;64539.38;6279356;28;20037;-90
2024/01/20 04:02:21;;;;;;;13.00;11.82;;;;;;;-145.48;100.00;64539.38;6280228;28;20048;-89
2024/01/20 04:05:23;;;;;;;10.73;10.00;;;;;;;-145.48;100.00;64539.38;6283979;28;20044;-90
2024/01/20 04:08:25;;;;;;;13.85;10.30;;;;;;;-145.48;100.00;64539.38;6284383;28;20048;-90
2024/01/20 04:11:27;;;;;;;10.90;10.10;;;;;;;-145.48;100.00;64539.38;6284534;28;20079;-90
2024/01/20 04:14:29;;;;;;;10.52;9.10;;;;;;;-145.48;100.00;64539.38;6273809;28;20349;-90
2024/01/20 04:17:31;;;;;;;10.98;10.07;;;;;;;-145.48;100.00;64539.38;6275209;28;20102;-90
2024/01/20 04:20:33;;;;;;;13.55;12.27;;;;;;;-145.48;100.00;64539.38;6286731;28;20044;-90
2024/01/20 04:23:35;;;;;;;9.23;8.60;;;;;;;-145.48;100.00;64539.38;6281131;28;20036;-90
2024/01/20 04:26:37;;;;;;;12.68;11.07;;;;;;;-145.48;100.00;64539.38;6286465;28;20112;-90
2024/01/20 04:29:39;;;;;;;13.90;10.93;;;;;;;-145.48;100.00;64539.38;6290333;28;20445;-90
2024/01/20 04:32:41;;;;;;;12.68;11.50;;;;;;;-145.48;100.00;64539.38;6284393;28;20064;-90
2024/01/20 04:35:43;;;;;;;9.68;8.88;;;;;;;-145.48;100.00;64539.38;6287514;28;20142;-90
2024/01/20 04:38:45;;;;;;;12.90;11.65;;;;;;;-145.48;100.00;64539.38;6286419;28;20079;-90
2024/01/20 04:41:47;;;;;;;11.15;10.35;;;;;;;-145.48;100.00;64539.38;6282815;28;20052;-90
2024/01/20 04:44:49;;;;;;;9.93;9.20;;;;;;;-145.48;100.00;64539.38;6282314;28;20524;-90
2024/01/20 04:47:51;;;;;;;12.85;10.43;;;;;;;-145.48;100.00;64539.38;6280204;28;20063;-90
2024/01/20 04:50:53;;;;;;;10.18;9.48;;;;;;;-145.48;100.00;64539.38;6281838;28;20462;-90
2024/01/20 04:53:55;;;;;;;8.57;8.07;;;;;;;-145.48;100.00;64539.38;6282577;28;20083;-90
2024/01/20 04:56:57;;;;;;;18.65;10.23;;;;;;;-145.48;100.00;64539.38;6287538;28;20041;-90
2024/01/20 04:59:59;;;;;;;10.40;9.82;;;;;;;-145.48;100.00;64539.38;6285450;28;20065;-90
2024/01/20 05:03:01;;;;;;;10.32;9.57;;;;;;;-145.48;100.00;64539.38;6286164;28;20048;-89
2024/01/20 05:06:05;;;;;;;8.88;8.27;;;;;;;-145.48;100.00;64539.38;6279614;28;20045;-90
2024/01/20 05:09:07;;;;;;;8.55;8.00;;;;;;;-145.48;100.00;64539.38;6287693;28;20037;-90
2024/01/20 05:12:09;;;;;;;8.93;8.13;;;;;;;-145.48;100.00;64539.38;6292131;28;20050;-90
2024/01/20 05:15:12;;;;;;;12.52;9.10;;;;;;;-145.48;100.00;64539.38;6291785;28;20043;-90
2024/01/20 05:18:14;;;;;;;9.63;9.13;;;;;;;-145.48;100.00;64539.38;6283627;28;20052;-90
2024/01/20 05:21:16;;;;;;;8.70;8.23;;;;;;;-145.48;100.00;64539.38;6287315;28;20206;-90
2024/01/20 05:24:18;;;;;;;10.25;9.48;;;;;;;-145.48;100.00;64539.38;6288537;28;20131;-90
2024/01/20 05:27:20;;;;;;;10.77;9.82;;;;;;;-145.48;100.00;64539.38;6289309;28;20487;-90
2024/01/20 05:30:23;;;;;;;9.38;8.88;;;;;;;-145.48;100.00;64539.38;6282577;28;20113;-90
2024/01/20 05:33:25;;;;;;;11.75;10.75;;;;;;;-145.48;100.00;64539.38;6284314;28;20474;-90
2024/01/20 05:36:27;;;;;;;11.50;10.65;;;;;;;-145.48;100.00;64539.38;6294971;28;20040;-90
2024/01/20 05:39:29;;;;;;;9.60;9.15;;;;;;;-145.48;100.00;64539.38;6286013;28;20403;-90
2024/01/20 05:42:31;;;;;;;11.13;10.00;;;;;;;-145.48;100.00;64539.38;6278282;28;20045;-90
2024/01/20 05:45:33;;;;;;;10.75;9.93;;;;;;;-145.48;100.00;64539.38;6282784;28;20043;-90
2024/01/20 05:48:35;;;;;;;32.30;9.98;;;;;;;-145.48;100.00;64539.38;6274981;28;20378;-90
2024/01/20 05:51:37;;;;;;;10.38;9.60;;;;;;;-145.48;100.00;64539.38;6284441;28;20408;-90
2024/01/20 05:54:39;;;;;;;12.30;11.20;;;;;;;-145.48;100.00;64539.38;6285892;28;20036;-90
2024/01/20 05:57:43;;;;;;;8.57;8.18;;;;;;;-145.48;100.00;64539.38;6285615;28;20052;-90
2024/01/20 06:00:45;;;;;;;9.82;9.23;;;;;;;-145.48;100.00;64539.38;6279693;28;20482;-90
2024/01/20 06:03:47;;;;;;;10.60;9.90;;;;;;;-145.48;100.00;64539.38;6281414;28;20044;-91
2024/01/20 06:06:49;;;;;;;9.57;8.93;;;;;;;-145.48;100.00;64539.38;6275747;28;20047;-90
2024/01/20 06:09:51;;;;;;;9.52;8.80;;;;;;;-145.48;100.00;64539.38;6286986;28;20135;-90
2024/01/20 06:12:53;;;;;;;10.02;9.35;;;;;;;-145.48;100.00;64539.38;6283039;28;20047;-90
2024/01/20 06:15:55;;;;;;;9.65;9.05;;;;;;;-145.48;100.00;64539.38;6281514;28;20570;-90
2024/01/20 06:18:57;;;;;;;9.20;8.60;;;;;;;-145.48;100.00;64539.38;6273595;28;20123;-90
2024/01/20 06:21:59;;;;;;;10.60;9.82;;;;;;;-145.48;100.00;64539.38;6282017;28;20044;-90
2024/01/20 06:25:00;;;;;;;9.75;9.25;;;;;;;-145.48;100.00;64539.38;6281704;28;20040;-91
2024/01/20 06:28:05;;;;;;;8.60;7.93;;;;;;;-145.48;100.00;64539.38;6281992;28;20040;-90
2024/01/20 06:31:09;;;;;;;9.00;8.38;;;;;;;-145.48;100.00;64539.38;6282289;28;20471;-90
2024/01/20 06:34:12;;;;;;;10.10;9.48;;;;;;;-145.48;100.00;64539.38;6286589;28;20476;-90
2024/01/20 06:37:14;;;;;;;7.90;7.50;;;;;;;-145.48;100.00;64539.38;6290000;28;20063;-90
2024/01/20 06:40:16;;;;;;;8.73;8.20;;;;;;;-145.48;100.00;64539.38;6280908;28;20036;-90
2024/01/20 06:43:18;;;;;;;12.43;10.52;;;;;;;-145.48;100.00;64539.38;6285551;28;20214;-90
2024/01/20 06:46:20;;;;;;;9.07;8.48;;;;;;;-145.48;100.00;64539.38;6286518;28;20171;-90
2024/01/20 06:49:21;;;;;;;9.70;8.93;;;;;;;-145.48;100.00;64539.38;6288921;28;20044;-90
2024/01/20 06:52:24;;;;;;;10.50;9.68;;;;;;;-145.48;100.00;64539.38;6283134;28;20496;-90
2024/01/20 06:55:26;;;;;;;9.65;8.80;;;;;;;-145.48;100.00;64539.38;6280882;28;20646;-90
2024/01/20 06:58:28;;;;;;;10.13;9.25;;;;;;;-145.48;100.00;64539.38;6284771;28;20451;-90
2024/01/20 07:01:31;;;;;;;9.80;9.00;;;;;;;-145.48;100.00;64539.38;6286114;28;20040;-90
2024/01/20 07:04:33;;;;;;;17.23;12.18;;;;;;;-145.48;100.00;64539.38;6282988;28;20123;-90
2024/01/20 07:07:38;;;;;;;10.30;9.40;;;;;;;-145.48;100.00;64539.38;6290117;28;20121;-90
2024/01/20 07:10:40;;;;;;;8.75;8.32;;;;;;;-145.48;100.00;64539.38;6283070;28;20051;-90
2024/01/20 07:13:42;;;;;;;9.00;8.50;;;;;;;-145.48;100.00;64539.38;6280050;28;20516;-90
2024/01/20 07:16:44;;;;;;;10.68;8.68;;;;;;;-145.48;100.00;64539.38;6276874;28;20056;-90
2024/01/20 07:19:46;;;;;;;8.23;7.82;;;;;;;-145.48;100.00;64539.38;6285333;28;20045;-90
2024/01/20 07:22:49;;;;;;;13.02;11.63;;;;;;;-145.48;100.00;64539.38;6284325;28;20505;-90
2024/01/20 07:25:51;;;;;;;8.65;8.00;;;;;;;-145.48;100.00;64539.38;6286618;28;20037;-90
2024/01/20 07:28:53;;;;;;;11.07;8.20;;;;;;;-145.48;100.00;64539.38;6279161;28;20045;-90
2024/01/20 07:31:55;;;;;;;11.35;10.43;;;;;;;-145.48;100.00;64539.38;6277757;28;20386;-90
2024/01/20 07:34:57;;;;;;;9.45;8.52;;;;;;;-145.48;100.00;64539.38;6281151;28;20051;-90
2024/01/20 07:37:59;;;;;;;10.20;9.30;;;;;;;-145.48;100.00;64539.38;6281982;28;20442;-91
2024/01/20 07:41:02;;;;;;;8.90;8.30;;;;;;;-145.48;100.00;64539.38;6276994;28;20049;-90
2024/01/20 07:44:04;;;;;;;9.75;9.23;;;;;;;-145.48;100.00;64539.38;6281958;28;20044;-90
2024/01/20 07:47:06;;;;;;;8.85;8.25;;;;;;;-145.48;100.00;64539.38;6281423;28;20690;-90
2024/01/20 07:50:08;;;;;;;8.65;8.15;;;;;;;-145.48;100.00;64539.38;6288083;28;20479;-90
2024/01/20 07:53:10;;;;;;;9.77;9.10;;;;;;;-145.48;100.00;64539.38;6289123;28;20040;-90
2024/01/20 07:56:14;;;;;;;11.57;8.45;;;;;;;-145.48;100.00;64539.38;6287294;28;20040;-90
2024/01/20 07:59:16;;;;;;;9.95;9.20;;;;;;;-145.48;100.00;64539.38;6284568;28;20051;-90
2024/01/20 08:02:18;;;;;;;9.18;8.68;;;;;;;-145.48;100.00;64539.38;6279911;28;20478;-90
2024/01/20 08:05:20;;;;;;;9.30;8.80;;;;;;;-145.48;100.00;64539.38;6281779;28;20032;-90
2024/01/20 08:08:22;;;;;;;10.93;10.02;;;;;;;-145.48;100.00;64539.38;6291601;28;20349;-90
2024/01/20 08:11:24;;;;;;;10.30;9.25;;;;;;;-145.48;100.00;64539.38;6281267;28;20036;-90
2024/01/20 08:14:26;;;;;;;8.20;7.80;;;;;;;-145.48;100.00;64539.38;6280601;28;20048;-90
2024/01/20 08:17:28;;;;;;;9.30;8.63;;;;;;;-145.48;100.00;64539.38;6286758;28;20040;-90
2024/01/20 08:20:30;;;;;;;15.38;9.52;;;;;;;-145.48;100.00;64539.38;6274682;28;20118;-90
2024/01/20 08:23:32;;;;;;;8.15;7.63;;;;;;;-145.48;100.00;64539.38;6274142;28;20047;-90
2024/01/20 08:26:34;;;;;;;17.60;8.68;;;;;;;-145.48;100.00;64539.38;6290148;28;20090;-90
2024/01/20 08:29:36;;;;;;;8.30;7.82;;;;;;;-145.48;100.00;64539.38;6297819;28;20080;-90
2024/01/20 08:32:40;;;;;;;10.70;9.63;;;;;;;-145.48;100.00;64539.38;6284960;28;20482;-90
2024/01/20 08:35:42;;;;;;;10.80;9.40;;;;;;;-145.48;100.00;64539.38;6291901;28;20044;-90
2024/01/20 08:38:44;;;;;;;9.63;8.73;;;;;;;-145.48;100.00;64539.38;6281452;28;20467;-91
2024/01/20 08:41:47;;;;;;;10.82;9.23;;;;;;;-145.48;100.00;64539.38;6274369;28;20079;-90
2024/01/20 08:44:48;;;;;;;9.45;8.95;;;;;;;-145.48;100.00;64539.38;6278742;28;20158;-90
2024/01/20 08:47:50;;;;;;;10.30;9.52;;;;;;;-145.48;100.00;64539.38;6281696;28;20029;-90
2024/01/20 08:50:52;;;;;;;8.60;7.85;;;;;;;-145.48;100.00;64539.38;6280475;28;20726;-90
2024/01/20 08:53:54;;;;;;;10.38;9.43;;;;;;;-145.48;100.00;64539.38;6279788;28;20045;-90
2024/01/20 08:56:56;;;;;;;9.65;8.95;;;;;;;-145.48;100.00;64539.38;6284106;28;20086;-90
2024/01/20 08:59:59;;;;;;;8.90;8.38;;;;;;;-145.48;100.00;64539.38;6287734;28;20090;-88
2024/01/20 09:03:01;;;;;;;10.43;9.73;;;;;;;-145.48;100.00;64539.38;6284714;28;20056;-88
2024/01/20 09:06:03;;;;;;;16.63;9.80;;;;;;;-145.48;100.00;64539.38;6288574;28;20517;-87
2024/01/20 09:09:05;;;;;;;8.90;8.35;;;;;;;-145.48;100.00;64539.38;6281386;28;20048;-87
2024/01/20 09:12:08;;;;;;;10.25;9.45;;;;;;;-145.48;100.00;64539.38;6288572;28;20055;-87
2024/01/20 09:15:10;;;;;;;9.25;8.55;;;;;;;-145.48;100.00;64539.38;6291535;28;20500;-87
2024/01/20 09:18:16;;;;;;;8.02;7.53;;;;;;;-145.48;100.00;64539.38;6282651;28;20119;-88
2024/01/20 09:21:18;;;;;;;10.23;9.48;;;;;;;-145.48;100.00;64539.38;6288674;28;20036;-87
2024/01/20 09:24:20;;;;;;;7.82;7.28;;;;;;;-145.48;100.00;64539.38;6288376;28;20501;-88
2024/01/20 09:27:23;;;;;;;9.55;8.88;;;;;;;-145.48;100.00;64539.38;6289767;28;20037;-87
2024/01/20 09:30:25;;;;;;;8.30;7.78;;;;;;;-145.48;100.00;64539.38;6285201;28;20048;-88
2024/01/20 09:33:26;;;;;;;7.18;6.65;;;;;;;-145.48;100.00;64539.38;6285290;28;20672;-88
2024/01/20 09:36:28;;;;;;;8.52;8.00;;;;;;;-145.48;100.00;64539.38;6286784;28;20043;-88
2024/01/20 09:39:30;;;;;;;8.20;7.68;;;;;;;-145.48;100.00;64539.38;6285377;28;20111;-88
2024/01/20 09:42:33;;;;;;;8.52;8.02;;;;;;;-145.48;100.00;64539.38;6291685;28;20036;-87
2024/01/20 09:45:38;;;;;;;9.05;8.35;;;;;;;-145.48;100.00;64539.38;6279806;28;20041;-88
2024/01/20 09:48:43;;;;;;;7.30;6.90;;;;;;;-145.48;100.00;64539.38;6280781;28;20049;-87
2024/01/20 09:51:51;;;;;;;8.40;7.80;;;;;;;-145.48;100.00;64539.38;6283674;28;20052;-88
2024/01/20 09:55:00;;;;;;;10.32;9.57;;;;;;;-145.48;100.00;64539.38;6288762;28;20044;-87
2024/01/20 09:58:03;;;;;;;9.65;8.45;;;;;;;-145.48;100.00;64539.38;6286191;28;20040;-88
2024/01/20 10:01:05;;;;;;;10.90;9.65;;;;;;;-145.48;100.00;64539.38;6284400;28;20444;-88
2024/01/20 10:04:08;;;;;;;8.50;7.90;;;;;;;-145.48;100.00;64539.38;6285997;28;20069;-87
2024/01/20 10:07:10;;;;;;;9.52;8.63;;;;;;;-145.48;100.00;64539.38;6279799;28;20318;-87
2024/01/20 10:10:21;;;;;;;8.93;8.43;;;;;;;-145.48;100.00;64539.38;6286335;28;20040;-88
2024/01/20 10:13:23;;;;;;;8.77;8.20;;;;;;;-145.48;100.00;64539.38;6284827;28;20036;-88
2024/01/20 10:16:26;;;;;;;8.70;8.25;;;;;;;-145.48;100.00;64539.38;6289610;28;20068;-88
2024/01/20 10:19:27;;;;;;;12.25;7.15;;;;;;;-145.48;100.00;64539.38;6288021;28;20245;-88
2024/01/20 10:22:29;;;;;;;8.85;8.40;;;;;;;-145.48;100.00;64539.38;6284227;28;20105;-88
2024/01/20 10:25:31;;;;;;;8.05;7.35;;;;;;;-145.48;100.00;64539.38;6284599;28;20459;-88
2024/01/20 10:28:33;;;;;;;8.60;8.10;;;;;;;-145.48;100.00;64539.38;6285920;28;20051;-88
2024/01/20 10:31:35;;;;;;;8.20;7.70;;;;;;;-145.48;100.00;64539.38;6279494;28;20045;-87
2024/01/20 10:34:37;;;;;;;8.90;8.45;;;;;;;-145.48;100.00;64539.38;6287357;28;20052;-88
2024/01/20 10:37:44;;;;;;;6.90;6.60;;;;;;;-145.48;100.00;64539.38;6281663;28;20060;-87
2024/01/20 10:40:53;;;;;;;8.68;8.05;;;;;;;-145.48;100.00;64539.38;6284572;28;20166;-88
2024/01/20 10:44:04;;;;;;;12.55;8.40;;;;;;;-145.48;100.00;64539.38;6281451;28;20092;-88
2024/01/20 10:47:21;;;;;;;7.35;6.95;;;;;;;-145.48;100.00;64539.38;6275356;28;20067;-88
2024/01/20 10:50:26;;;;;;;7.88;7.45;;;;;;;-145.48;100.00;64539.38;6282242;28;20047;-89
2024/01/20 10:53:29;;;;;;;6.25;5.97;;;;;;;-145.48;100.00;64539.38;6287118;28;20166;-88
2024/01/20 10:56:33;;;;;;;8.63;8.15;;;;;;;-145.48;100.00;64539.38;6291072;28;20047;-88
2024/01/20 10:59:40;;;;;;;7.65;7.35;;;;;;;-145.48;100.00;64539.38;6287890;28;20048;-88
2024/01/20 11:02:44;;;;;;;7.50;7.18;;;;;;;-145.48;100.00;64539.38;6287447;28;20032;-88
2024/01/20 11:05:47;;;;;;;7.88;7.40;;;;;;;-145.48;100.00;64539.38;6284768;28;20045;-88
2024/01/20 11:08:51;;;;;;;6.65;6.35;;;;;;;-145.48;100.00;64539.38;6288423;28;20040;-88
2024/01/20 11:12:09;;;;;;;8.75;8.05;;;;;;;-145.48;100.00;64539.38;6288865;28;20244;-88
2024/01/20 11:15:16;;;;;;;7.63;7.22;;;;;;;-145.48;100.00;64539.38;6280456;28;20045;-88
2024/01/20 11:18:21;;;;;;;8.35;7.85;;;;;;;-145.48;100.00;64539.38;6281796;28;20510;-88
2024/01/20 11:21:23;;;;;;;7.55;7.25;;;;;;;-145.48;100.00;64539.38;6274049;28;20040;-88
2024/01/20 11:24:42;;;;;;;7.78;7.38;;;;;;;-145.48;100.00;64539.38;6287909;28;20531;-88
2024/01/20 11:27:54;;;;;;;8.38;7.60;;;;;;;-145.48;100.00;64539.38;6289100;28;20036;-87
2024/01/20 11:30:56;;;;;;;7.80;7.25;;;;;;;-145.48;100.00;64539.38;6286577;28;20055;-87
2024/01/20 11:34:00;;;;;;;7.80;7.13;;;;;;;-145.48;100.00;64539.38;6286566;28;20182;-86
2024/01/20 11:37:04;;;;;;;7.57;7.25;;;;;;;-145.48;100.00;64539.38;6282197;28;20060;-86
2024/01/20 11:40:07;;;;;;;7.28;6.85;;;;;;;-145.48;100.00;64539.38;6278494;28;20043;-86
2024/01/20 11:43:16;;;;;;;8.05;7.60;;;;;;;-145.48;100.00;64539.38;6281484;28;20749;-85
2024/01/20 11:46:19;;;;;;;9.73;8.57;;;;;;;-145.48;100.00;64539.38;6284877;28;20139;-85
2024/01/20 11:49:21;;;;;;;15.63;7.28;;;;;;;-145.48;100.00;64539.38;6289086;28;20036;-85
2024/01/20 11:52:24;;;;;;;6.82;6.38;;;;;;;-145.48;100.00;64539.38;6282985;28;20167;-85
2024/01/20 11:55:26;;;;;;;7.90;7.50;;;;;;;-145.48;100.00;64539.38;6280759;28;20088;-86
2024/01/20 11:58:30;;;;;;;7.45;7.10;;;;;;;-145.48;100.00;64539.38;6278998;28;20041;-86
2024/01/20 12:01:32;;;;;;;8.68;8.00;;;;;;;-145.48;100.00;64539.38;6276287;28;20062;-85
2024/01/20 12:04:34;;;;;;;7.82;7.20;;;;;;;-145.48;100.00;64539.38;6286551;28;20064;-86
2024/01/20 12:07:36;;;;;;;7.55;7.05;;;;;;;-145.48;100.00;64539.38;6286951;28;20036;-86
2024/01/20 12:10:41;;;;;;;7.72;7.32;;;;;;;-145.48;100.00;64539.38;6280640;28;20072;-86
2024/01/20 12:13:45;;;;;;;6.68;6.38;;;;;;;-145.48;100.00;64539.38;6280361;28;20048;-87
2024/01/20 12:16:49;;;;;;;7.60;7.03;;;;;;;-145.48;100.00;64539.38;6282074;28;20063;-86
2024/01/20 12:19:50;;;;;;;7.95;7.57;;;;;;;-145.48;100.00;64539.38;6287119;28;20173;-87
2024/01/20 12:23:05;;;;;;;9.82;8.88;;;;;;;-145.48;100.00;64539.38;6284675;28;20148;-87
2024/01/20 12:26:14;;;;;;;7.68;7.28;;;;;;;-145.48;100.00;64539.38;6278101;28;20040;-87
2024/01/20 12:29:16;;;;;;;6.93;6.57;;;;;;;-145.48;100.00;64539.38;6291191;28;20501;-87
2024/01/20 12:32:19;;;;;;;7.68;7.25;;;;;;;-145.48;100.00;64539.38;6284415;28;20060;-87
2024/01/20 12:35:21;;;;;;;6.70;6.30;;;;;;;-145.48;100.00;64539.38;6276424;28;20076;-87
2024/01/20 12:38:22;;;;;;;10.43;7.10;;;;;;;-145.48;100.00;64539.38;6288899;28;20186;-87
2024/01/20 12:41:26;;;;;;;8.68;8.07;;;;;;;-145.48;100.00;64539.38;6296098;28;20055;-87
2024/01/20 12:44:28;;;;;;;20.80;7.03;;;;;;;-145.48;100.00;64539.38;6297234;28;20561;-87
2024/01/20 12:47:30;;;;;;;6.88;6.40;;;;;;;-145.48;100.00;64539.38;6285464;28;20029;-87
2024/01/20 12:50:32;;;;;;;7.55;6.75;;;;;;;-145.48;100.00;64539.38;6292059;28;20048;-87
2024/01/20 12:53:34;;;;;;;6.75;6.30;;;;;;;-145.48;100.00;64539.38;6286484;28;20039;-87
2024/01/20 12:56:36;;;;;;;6.30;6.05;;;;;;;-145.48;100.00;64539.38;6292486;28;20041;-87
2024/01/20 12:59:38;;;;;;;7.38;6.97;;;;;;;-145.48;100.00;64539.38;6284838;28;20036;-86
2024/01/20 13:02:39;;;;;;;6.22;5.95;;;;;;;-145.48;100.00;64539.38;6284147;28;20098;-86
2024/01/20 13:05:43;;;;;;;7.15;6.63;;;;;;;-145.48;100.00;64539.38;6295826;28;20459;-86
2024/01/20 13:08:45;;;;;;;6.45;6.15;;;;;;;-145.48;100.00;64539.38;6288217;28;20174;-86
2024/01/20 13:11:47;;;;;;;7.65;7.07;;;;;;;-145.48;100.00;64539.38;6290233;28;20056;-86
2024/01/20 13:14:48;;;;;;;7.60;7.20;;;;;;;-145.48;100.00;64539.38;6280140;28;20056;-87
2024/01/20 13:17:50;;;;;;;8.23;7.72;;;;;;;-145.48;100.00;64539.38;6289133;28;20383;-87
2024/01/20 13:20:52;;;;;;;8.18;7.38;;;;;;;-145.48;100.00;64539.38;6286344;28;20040;-87
2024/01/20 13:23:54;;;;;;;7.03;6.72;;;;;;;-145.48;100.00;64539.38;6284421;28;20488;-86
2024/01/20 13:26:56;;;;;;;6.45;6.15;;;;;;;-145.48;100.00;64539.38;6293413;28;20059;-86
2024/01/20 13:29:58;;;;;;;6.70;6.38;;;;;;;-145.48;100.00;64539.38;6290496;28;20127;-87
2024/01/20 13:33:00;;;;;;;6.85;6.45;;;;;;;-145.48;100.00;64539.38;6283390;28;20036;-87
2024/01/20 13:36:02;;;;;;;7.70;7.40;;;;;;;-145.48;100.00;64539.38;6295661;28;20048;-86
2024/01/20 13:39:04;;;;;;;6.35;5.93;;;;;;;-145.48;100.00;64539.38;6287622;28;20066;-86
2024/01/20 13:42:07;;;;;;;6.38;6.07;;;;;;;-145.48;100.00;64539.38;6287286;28;20513;-87